Time;durP1;ratioP1;P1;durP2;ratioP2;P2;SDS_P1;SDS_P2;PMS_P1;PMS_P2;Temp;Humidity;BMP_temperature;BMP_pressure;BME280_temperature;BME280_humidity;BME280_pressure;Samples;Min_cycle;Max_cycle;Signal;HPM_P1;HPM_P2
2023/01/15 00:00:09;;;;;;;6.82;3.55;;;;;;;;;;5054235;28;20060;-69
2023/01/15 00:02:35;;;;;;;6.35;3.30;;;;;;;;;;5054176;28;20072;-70
2023/01/15 00:05:02;;;;;;;4.60;3.10;;;;;;;;;;5053587;28;20041;-69
2023/01/15 00:07:28;;;;;;;4.38;3.15;;;;;;;;;;5053568;28;20091;-69
2023/01/15 00:09:53;;;;;;;5.07;3.42;;;;;;;;;;5036048;28;20037;-69
2023/01/15 00:12:18;;;;;;;3.33;2.85;;;;;;;;;;5035976;28;20067;-69
2023/01/15 00:14:44;;;;;;;4.40;2.83;;;;;;;;;;5053485;28;20400;-69
2023/01/15 00:17:09;;;;;;;3.50;2.40;;;;;;;;;;5054304;28;20036;-69
2023/01/15 00:19:35;;;;;;;3.75;2.78;;;;;;;;;;5053663;28;20116;-69
2023/01/15 00:22:00;;;;;;;2.63;2.42;;;;;;;;;;5036034;28;20127;-69
2023/01/15 00:29:54;;;;;;;2.55;2.35;;;;;;;;;;5035932;28;20067;-67
2023/01/15 00:32:19;;;;;;;2.72;2.45;;;;;;;;;;5053296;28;20056;-69
2023/01/15 00:34:44;;;;;;;4.55;2.55;;;;;;;;;;5053659;28;20468;-66
2023/01/15 00:37:10;;;;;;;4.50;2.38;;;;;;;;;;5035440;28;20183;-71
2023/01/15 00:39:35;;;;;;;2.90;2.30;;;;;;;;;;5053264;28;20461;-69
2023/01/15 00:42:00;;;;;;;4.18;3.03;;;;;;;;;;5053471;28;20500;-69
2023/01/15 00:44:26;;;;;;;4.00;3.00;;;;;;;;;;5056782;28;20569;-68
2023/01/15 00:46:51;;;;;;;2.63;2.30;;;;;;;;;;5057183;28;20036;-69
2023/01/15 00:49:19;;;;;;;3.53;2.45;;;;;;;;;;5023040;28;20048;-69
2023/01/15 00:51:45;;;;;;;3.33;2.67;;;;;;;;;;5039594;28;20037;-69
2023/01/15 00:54:10;;;;;;;2.92;2.63;;;;;;;;;;5039071;28;20534;-68
2023/01/15 00:56:35;;;;;;;3.60;2.45;;;;;;;;;;5039778;28;20120;-69
2023/01/15 00:59:02;;;;;;;3.00;2.20;;;;;;;;;;5023408;28;20121;-68
2023/01/15 01:01:28;;;;;;;2.30;2.10;;;;;;;;;;5039524;28;20472;-68
2023/01/15 01:03:53;;;;;;;2.67;1.98;;;;;;;;;;5038940;28;20033;-68
2023/01/15 01:06:21;;;;;;;2.58;2.20;;;;;;;;;;5038954;28;20043;-69
2023/01/15 01:08:47;;;;;;;2.50;1.92;;;;;;;;;;5056747;28;20552;-69
2023/01/15 01:11:13;;;;;;;2.10;1.90;;;;;;;;;;5056799;28;20033;-67
2023/01/15 01:13:40;;;;;;;2.30;1.95;;;;;;;;;;5038868;28;20041;-67
2023/01/15 01:16:26;;;;;;;2.55;1.92;;;;;;;;;;5038941;28;20048;-67
2023/01/15 01:18:52;;;;;;;2.88;2.10;;;;;;;;;;5039491;28;20044;-69
2023/01/15 01:21:17;;;;;;;2.78;2.00;;;;;;;;;;5056585;28;20041;-67
2023/01/15 01:23:43;;;;;;;3.72;2.13;;;;;;;;;;5038618;28;20159;-68
2023/01/15 01:26:09;;;;;;;2.42;2.03;;;;;;;;;;5038521;28;20116;-68
2023/01/15 01:28:34;;;;;;;3.53;2.00;;;;;;;;;;5038783;28;20047;-68
2023/01/15 01:31:03;;;;;;;2.95;2.03;;;;;;;;;;5038512;28;20040;-68
2023/01/15 01:33:28;;;;;;;1.65;1.55;;;;;;;;;;5056574;28;20048;-68
2023/01/15 01:35:53;;;;;;;2.45;1.80;;;;;;;;;;5056349;28;20025;-69
2023/01/15 01:38:19;;;;;;;1.75;1.65;;;;;;;;;;5056259;28;20443;-69
2023/01/15 01:40:44;;;;;;;2.42;1.88;;;;;;;;;;5056393;28;20449;-68
2023/01/15 01:43:16;;;;;;;3.92;2.00;;;;;;;;;;5038169;28;20075;-68
2023/01/15 01:45:41;;;;;;;2.78;2.15;;;;;;;;;;5038944;28;20045;-66
2023/01/15 01:48:07;;;;;;;3.80;1.92;;;;;;;;;;5056310;28;20037;-73
2023/01/15 01:50:33;;;;;;;2.33;2.05;;;;;;;;;;5055985;28;20064;-66
2023/01/15 01:53:02;;;;;;;3.10;2.13;;;;;;;;;;5037998;28;20036;-66
2023/01/15 01:55:29;;;;;;;4.13;2.10;;;;;;;;;;5056022;28;20048;-65
2023/01/15 01:57:56;;;;;;;2.13;1.92;;;;;;;;;;5056460;28;20434;-67
2023/01/15 02:00:22;;;;;;;2.10;1.63;;;;;;;;;;5037878;28;20496;-67
2023/01/15 02:02:48;;;;;;;2.78;2.05;;;;;;;;;;5037851;28;20488;-67
2023/01/15 02:05:17;;;;;;;3.40;2.10;;;;;;;;;;5055764;28;20025;-67
2023/01/15 02:07:42;;;;;;;3.10;2.20;;;;;;;;;;5055655;28;20044;-67
2023/01/15 02:10:12;;;;;;;1.90;1.80;;;;;;;;;;5037772;28;20033;-67
2023/01/15 02:12:38;;;;;;;1.70;1.60;;;;;;;;;;5037769;28;20043;-67
2023/01/15 02:15:04;;;;;;;1.70;1.58;;;;;;;;;;5037819;28;20112;-67
2023/01/15 02:17:38;;;;;;;1.67;1.50;;;;;;;;;;5055979;28;20037;-65
2023/01/15 02:20:12;;;;;;;1.27;1.23;;;;;;;;;;5055527;28;20029;-66
2023/01/15 02:22:56;;;;;;;1.67;1.58;;;;;;;;;;5055548;28;20481;-66
2023/01/15 02:25:48;;;;;;;1.50;1.40;;;;;;;;;;5055551;28;20387;-65
2023/01/15 02:28:20;;;;;;;1.70;1.60;;;;;;;;;;5017181;28;20036;-65
2023/01/15 02:30:47;;;;;;;1.65;1.55;;;;;;;;;;5037827;28;20067;-65
2023/01/15 02:33:16;;;;;;;1.63;1.48;;;;;;;;;;5037293;28;20492;-64
2023/01/15 02:35:44;;;;;;;2.17;1.73;;;;;;;;;;5020899;28;20496;-64
2023/01/15 02:38:13;;;;;;;1.52;1.42;;;;;;;;;;5037223;28;20057;-64
2023/01/15 02:40:40;;;;;;;1.50;1.40;;;;;;;;;;5054975;28;20459;-64
2023/01/15 02:43:06;;;;;;;1.75;1.65;;;;;;;;;;5017824;28;20076;-64
2023/01/15 02:45:35;;;;;;;1.70;1.60;;;;;;;;;;5033773;28;20033;-64
2023/01/15 02:48:11;;;;;;;1.88;1.58;;;;;;;;;;5033767;28;20087;-64
2023/01/15 02:50:39;;;;;;;3.10;1.88;;;;;;;;;;5033795;28;20068;-64
2023/01/15 02:53:07;;;;;;;2.33;1.50;;;;;;;;;;5033621;28;20552;-65
2023/01/15 02:55:40;;;;;;;1.95;1.75;;;;;;;;;;5034835;28;20041;-65
2023/01/15 02:58:07;;;;;;;1.70;1.60;;;;;;;;;;5034063;28;20124;-66
2023/01/15 03:00:40;;;;;;;1.98;1.77;;;;;;;;;;5033454;28;20057;-67
2023/01/15 03:03:13;;;;;;;1.95;1.70;;;;;;;;;;5033482;28;20042;-67
2023/01/15 03:05:41;;;;;;;3.45;1.75;;;;;;;;;;5032831;28;20443;-66
2023/01/15 03:08:07;;;;;;;1.80;1.70;;;;;;;;;;5033397;28;20206;-66
2023/01/15 03:10:54;;;;;;;1.50;1.40;;;;;;;;;;5033490;28;20120;-68
2023/01/15 03:13:26;;;;;;;1.80;1.70;;;;;;;;;;5024703;28;20038;-65
2023/01/15 03:18:55;;;;;;;1.98;1.30;;;;;;;;;;5034162;28;20030;-75
2023/01/15 03:21:27;;;;;;;1.85;1.50;;;;;;;;;;5033062;28;20420;-73
2023/01/15 03:23:53;;;;;;;1.42;1.33;;;;;;;;;;5033160;28;20025;-73
2023/01/15 03:26:21;;;;;;;1.55;1.45;;;;;;;;;;5032977;28;20044;-74
2023/01/15 03:28:47;;;;;;;1.65;1.55;;;;;;;;;;5016483;28;20397;-75
2023/01/15 03:31:13;;;;;;;1.88;1.65;;;;;;;;;;5033228;28;20049;-75
2023/01/15 03:33:39;;;;;;;1.67;1.58;;;;;;;;;;5033392;28;20042;-75
2023/01/15 03:36:11;;;;;;;2.13;1.42;;;;;;;;;;5032654;28;20044;-75
2023/01/15 03:38:40;;;;;;;1.85;1.58;;;;;;;;;;5017437;28;20126;-73
2023/01/15 03:41:12;;;;;;;1.25;1.15;;;;;;;;;;5032681;28;20034;-74
2023/01/15 03:43:45;;;;;;;1.60;1.50;;;;;;;;;;5032827;28;20038;-73
2023/01/15 03:46:26;;;;;;;1.40;1.30;;;;;;;;;;5016286;28;20052;-75
2023/01/15 03:49:04;;;;;;;1.65;1.15;;;;;;;;;;5032678;28;20033;-73
2023/01/15 03:51:47;;;;;;;1.70;1.60;;;;;;;;;;5032577;28;20134;-72
2023/01/15 03:54:20;;;;;;;1.67;1.58;;;;;;;;;;5033621;28;20040;-75
2023/01/15 03:56:56;;;;;;;1.50;1.40;;;;;;;;;;5032513;28;20555;-75
2023/01/15 03:59:32;;;;;;;1.35;1.25;;;;;;;;;;5032813;28;20112;-74
2023/01/15 04:02:01;;;;;;;1.50;1.40;;;;;;;;;;5016428;28;20072;-76
2023/01/15 04:04:27;;;;;;;2.03;1.50;;;;;;;;;;5032420;28;20041;-77
2023/01/15 04:06:54;;;;;;;1.35;1.25;;;;;;;;;;5032668;28;20532;-77
2023/01/15 04:09:20;;;;;;;1.70;1.60;;;;;;;;;;5032370;28;20040;-77
2023/01/15 04:11:46;;;;;;;1.63;1.52;;;;;;;;;;5032342;28;20040;-75
2023/01/15 04:14:12;;;;;;;2.03;1.60;;;;;;;;;;5032520;28;20440;-74
2023/01/15 04:16:44;;;;;;;2.13;1.52;;;;;;;;;;5031637;28;20049;-74
2023/01/15 04:19:11;;;;;;;1.95;1.52;;;;;;;;;;5032334;28;20037;-73
2023/01/15 04:21:42;;;;;;;1.30;1.27;;;;;;;;;;5032043;28;20037;-73
2023/01/15 04:24:08;;;;;;;1.77;1.50;;;;;;;;;;5033204;28;20030;-73
2023/01/15 04:26:33;;;;;;;1.48;1.35;;;;;;;;;;5033550;28;20504;-72
2023/01/15 04:28:58;;;;;;;1.50;1.40;;;;;;;;;;5033587;28;20038;-72
2023/01/15 04:31:24;;;;;;;1.58;1.48;;;;;;;;;;5033732;28;20029;-74
2023/01/15 04:33:50;;;;;;;1.88;1.77;;;;;;;;;;5032707;28;20128;-75
2023/01/15 04:36:17;;;;;;;1.23;1.13;;;;;;;;;;5000530;23;20049;-68
2023/01/15 04:38:43;;;;;;;2.20;1.30;;;;;;;;;;5043544;23;20064;-69
2023/01/15 04:44:09;;;;;;;1.15;1.10;;;;;;;;;;5012247;28;20034;-72
2023/01/15 04:46:38;;;;;;;1.50;1.40;;;;;;;;;;5013769;28;20041;-72
2023/01/15 04:49:07;;;;;;;1.50;1.20;;;;;;;;;;4995956;28;20077;-72
2023/01/15 04:51:32;;;;;;;1.25;1.15;;;;;;;;;;5014029;28;20340;-72
2023/01/15 04:54:00;;;;;;;1.45;1.35;;;;;;;;;;5013941;28;20521;-71
2023/01/15 04:56:25;;;;;;;1.50;1.40;;;;;;;;;;5013600;28;20493;-69
2023/01/15 04:58:51;;;;;;;1.42;1.33;;;;;;;;;;5013711;28;20046;-68
2023/01/15 05:01:18;;;;;;;1.85;1.40;;;;;;;;;;5013023;28;20484;-67
2023/01/15 05:03:43;;;;;;;1.30;1.20;;;;;;;;;;5012157;28;20185;-68
2023/01/15 05:06:08;;;;;;;1.10;1.10;;;;;;;;;;5012160;28;20116;-67
2023/01/15 05:08:34;;;;;;;1.40;1.30;;;;;;;;;;5013782;28;20467;-67
2023/01/15 05:11:04;;;;;;;1.50;1.40;;;;;;;;;;5013214;28;20050;-68
2023/01/15 05:13:31;;;;;;;1.50;1.40;;;;;;;;;;5011913;28;20042;-69
2023/01/15 05:16:27;;;;;;;2.05;1.17;;;;;;;;;;5013129;28;20034;-70
2023/01/15 05:18:55;;;;;;;1.50;1.40;;;;;;;;;;5000497;28;20466;-69
2023/01/15 05:21:21;;;;;;;2.08;1.20;;;;;;;;;;5013416;28;20486;-72
2023/01/15 05:23:47;;;;;;;1.25;1.15;;;;;;;;;;5011611;28;20038;-70
2023/01/15 05:26:12;;;;;;;1.20;1.13;;;;;;;;;;5012306;28;20382;-70
2023/01/15 05:28:38;;;;;;;1.50;1.40;;;;;;;;;;5012625;28;20038;-70
2023/01/15 05:31:32;;;;;;;1.40;1.30;;;;;;;;;;5017393;28;20112;-68
2023/01/15 05:33:58;;;;;;;1.63;1.52;;;;;;;;;;5015283;28;20104;-67
2023/01/15 05:36:24;;;;;;;1.65;1.23;;;;;;;;;;5015377;28;20030;-67
2023/01/15 05:38:51;;;;;;;1.40;1.30;;;;;;;;;;5016551;28;20045;-67
2023/01/15 05:44:03;;;;;;;1.50;1.40;;;;;;;;;;5016343;28;20039;-69
2023/01/15 05:46:28;;;;;;;2.05;1.70;;;;;;;;;;5016584;28;20029;-75
2023/01/15 05:48:54;;;;;;;1.35;1.25;;;;;;;;;;5016259;28;20367;-68
2023/01/15 05:51:19;;;;;;;1.50;1.40;;;;;;;;;;5015299;28;20080;-68
2023/01/15 05:53:44;;;;;;;1.48;1.20;;;;;;;;;;5014318;28;20034;-70
2023/01/15 05:56:10;;;;;;;1.40;1.30;;;;;;;;;;5015437;28;20448;-65
2023/01/15 05:58:35;;;;;;;1.48;1.38;;;;;;;;;;5015787;28;20041;-65
2023/01/15 06:01:05;;;;;;;1.60;1.50;;;;;;;;;;5015254;28;20041;-66
2023/01/15 06:03:30;;;;;;;2.05;1.50;;;;;;;;;;5015196;28;20064;-66
2023/01/15 06:05:55;;;;;;;5.13;4.05;;;;;;;;;;5015215;28;20125;-66
2023/01/15 06:08:22;;;;;;;7.80;5.60;;;;;;;;;;5015109;28;20026;-66
2023/01/15 06:10:47;;;;;;;5.05;3.85;;;;;;;;;;5014128;28;20043;-66
2023/01/15 06:13:13;;;;;;;2.42;2.33;;;;;;;;;;5014935;28;20038;-67
2023/01/15 06:15:39;;;;;;;2.00;1.90;;;;;;;;;;5013659;28;20025;-66
2023/01/15 06:18:04;;;;;;;2.72;2.10;;;;;;;;;;5014794;28;20556;-67
2023/01/15 06:20:29;;;;;;;1.85;1.70;;;;;;;;;;5014329;28;20038;-67
2023/01/15 06:22:55;;;;;;;1.83;1.73;;;;;;;;;;5014709;28;20121;-66
2023/01/15 06:25:20;;;;;;;2.35;2.15;;;;;;;;;;5014928;28;20034;-66
2023/01/15 06:27:48;;;;;;;2.25;2.08;;;;;;;;;;5013396;28;20052;-66
2023/01/15 06:30:13;;;;;;;1.92;1.83;;;;;;;;;;5014508;28;20038;-66
2023/01/15 06:32:38;;;;;;;2.03;1.92;;;;;;;;;;5014452;28;20052;-66
2023/01/15 06:35:04;;;;;;;6.63;3.58;;;;;;;;;;5014416;28;20088;-64
2023/01/15 06:37:29;;;;;;;5.47;3.00;;;;;;;;;;5014322;28;20042;-64
2023/01/15 06:39:54;;;;;;;3.22;2.75;;;;;;;;;;5013987;28;20045;-64
2023/01/15 06:47:48;;;;;;;6.60;3.55;;;;;;;;;;5015073;28;20738;-64
2023/01/15 06:50:14;;;;;;;8.63;5.55;;;;;;;;;;5014884;28;20065;-64
2023/01/15 06:52:39;;;;;;;6.28;4.63;;;;;;;;;;5014360;28;20061;-68
2023/01/15 06:55:05;;;;;;;3.70;3.35;;;;;;;;;;5014068;28;20394;-66
2023/01/15 06:57:30;;;;;;;3.58;2.95;;;;;;;;;;5014046;28;20482;-65
2023/01/15 06:59:56;;;;;;;3.28;2.97;;;;;;;;;;5012649;28;20040;-65
2023/01/15 07:02:21;;;;;;;3.03;2.53;;;;;;;;;;5013759;28;20508;-65
2023/01/15 07:04:47;;;;;;;2.72;1.92;;;;;;;;;;5013893;28;20441;-62
2023/01/15 07:07:17;;;;;;;3.85;2.65;;;;;;;;;;5013887;28;20025;-62
2023/01/15 07:09:42;;;;;;;3.85;2.85;;;;;;;;;;5012568;28;20120;-62
2023/01/15 07:12:07;;;;;;;3.80;3.15;;;;;;;;;;5013727;28;20069;-62
2023/01/15 07:14:32;;;;;;;2.10;1.90;;;;;;;;;;5013719;28;20045;-62
2023/01/15 07:16:58;;;;;;;1.63;1.52;;;;;;;;;;5012552;28;20050;-62
2023/01/15 07:19:23;;;;;;;1.70;1.60;;;;;;;;;;5013596;28;20038;-62
2023/01/15 07:21:49;;;;;;;2.13;1.98;;;;;;;;;;5013818;28;20501;-62
2023/01/15 07:24:15;;;;;;;2.08;1.58;;;;;;;;;;5013485;28;20040;-61
2023/01/15 07:26:40;;;;;;;2.13;1.92;;;;;;;;;;5013470;28;20034;-61
2023/01/15 07:29:06;;;;;;;3.38;2.03;;;;;;;;;;5013441;28;20442;-61
2023/01/15 07:31:31;;;;;;;4.55;3.30;;;;;;;;;;5013313;28;20483;-61
2023/01/15 07:33:56;;;;;;;3.55;3.25;;;;;;;;;;5013391;28;20079;-61
2023/01/15 07:36:22;;;;;;;3.35;2.88;;;;;;;;;;5012044;28;20097;-62
2023/01/15 07:38:47;;;;;;;4.03;3.63;;;;;;;;;;5013311;28;20038;-61
2023/01/15 07:52:08;;;;;;;5.80;3.75;;;;;;;;;;5012821;28;20037;-65
2023/01/15 07:54:33;;;;;;;5.90;3.67;;;;;;;;;;5012978;28;20544;-65
2023/01/15 07:56:59;;;;;;;3.60;2.60;;;;;;;;;;5013063;28;20046;-64
2023/01/15 07:59:24;;;;;;;2.85;2.25;;;;;;;;;;5011811;28;20454;-63
2023/01/15 08:01:50;;;;;;;2.28;2.05;;;;;;;;;;5012858;28;20448;-63
2023/01/15 08:04:15;;;;;;;2.60;2.40;;;;;;;;;;5011543;28;20083;-63
2023/01/15 08:06:40;;;;;;;3.17;2.88;;;;;;;;;;5012805;28;20404;-63
2023/01/15 08:09:06;;;;;;;2.15;2.05;;;;;;;;;;5012865;28;20041;-63
2023/01/15 08:17:03;;;;;;;13.57;6.65;;;;;;;;;;5011688;28;20497;-63
2023/01/15 08:19:28;;;;;;;5.35;3.83;;;;;;;;;;5011573;28;20040;-68
2023/01/15 08:21:57;;;;;;;3.25;2.88;;;;;;;;;;5012757;28;20112;-68
2023/01/15 08:24:23;;;;;;;3.50;3.20;;;;;;;;;;5012719;28;20462;-70
2023/01/15 08:26:48;;;;;;;3.13;2.60;;;;;;;;;;5012764;28;20072;-70
2023/01/15 08:29:14;;;;;;;2.00;1.35;;;;;;;;;;5012709;28;20038;-70
2023/01/15 08:31:40;;;;;;;2.97;2.42;;;;;;;;;;5012603;28;20046;-70
2023/01/15 08:34:06;;;;;;;2.25;2.13;;;;;;;;;;5028139;28;20129;-70
2023/01/15 08:36:31;;;;;;;2.25;2.13;;;;;;;;;;5012146;28;20113;-70
2023/01/15 08:38:56;;;;;;;3.05;2.70;;;;;;;;;;5011506;28;20041;-70
2023/01/15 08:41:22;;;;;;;3.10;2.80;;;;;;;;;;5012302;28;20053;-70
2023/01/15 08:43:47;;;;;;;3.05;2.63;;;;;;;;;;5012589;28;20026;-70
2023/01/15 08:46:12;;;;;;;3.53;2.90;;;;;;;;;;5012548;28;20042;-70
2023/01/15 08:48:38;;;;;;;3.63;2.92;;;;;;;;;;5012507;28;20124;-70
2023/01/15 08:51:07;;;;;;;4.32;3.45;;;;;;;;;;5012519;28;20045;-70
2023/01/15 08:53:33;;;;;;;6.05;3.88;;;;;;;;;;5027680;28;20382;-70
2023/01/15 08:55:58;;;;;;;3.53;3.03;;;;;;;;;;5027649;28;20061;-70
2023/01/15 08:58:26;;;;;;;5.20;3.45;;;;;;;;;;5012459;28;20041;-70
2023/01/15 09:00:52;;;;;;;5.43;4.00;;;;;;;;;;5012429;28;20052;-70
2023/01/15 09:03:18;;;;;;;5.18;3.33;;;;;;;;;;5012509;28;20034;-71
2023/01/15 09:05:43;;;;;;;3.65;2.78;;;;;;;;;;5015898;28;20048;-71
2023/01/15 09:08:08;;;;;;;2.97;2.78;;;;;;;;;;5016116;28;20034;-71
2023/01/15 09:10:34;;;;;;;4.25;3.08;;;;;;;;;;5016633;28;20378;-71
2023/01/15 09:13:00;;;;;;;6.45;4.20;;;;;;;;;;5016378;28;20025;-71
2023/01/15 09:15:26;;;;;;;4.95;3.72;;;;;;;;;;5032179;28;20168;-71
2023/01/15 09:17:51;;;;;;;3.35;3.05;;;;;;;;;;5017243;28;20034;-70
2023/01/15 09:20:17;;;;;;;3.88;2.60;;;;;;;;;;5017359;28;20052;-71
2023/01/15 09:22:42;;;;;;;3.22;2.92;;;;;;;;;;5017113;28;20034;-70
2023/01/15 09:25:08;;;;;;;3.10;2.33;;;;;;;;;;5016276;28;20064;-70
2023/01/15 09:27:33;;;;;;;3.55;3.22;;;;;;;;;;5016929;28;20030;-70
2023/01/15 09:29:59;;;;;;;4.10;2.58;;;;;;;;;;5016784;28;20046;-70
2023/01/15 09:35:15;;;;;;;3.95;2.65;;;;;;;;;;5086020;23;20057;-70
2023/01/15 09:37:41;;;;;;;3.42;3.13;;;;;;;;;;5082351;22;20063;-70
2023/01/15 09:40:08;;;;;;;3.60;3.08;;;;;;;;;;5056842;28;20079;-70
2023/01/15 09:42:56;;;;;;;4.15;3.15;;;;;;;;;;5056419;28;20088;-70
2023/01/15 09:45:33;;;;;;;2.90;2.47;;;;;;;;;;5056703;28;20048;-70
2023/01/15 09:48:01;;;;;;;5.60;3.40;;;;;;;;;;5056398;28;20120;-70
2023/01/15 09:50:32;;;;;;;4.38;3.03;;;;;;;;;;5056629;28;20037;-69
2023/01/15 09:52:57;;;;;;;8.20;3.53;;;;;;;;;;5056333;28;20404;-70
2023/01/15 09:55:30;;;;;;;4.97;3.80;;;;;;;;;;5038097;28;20037;-70
2023/01/15 09:57:57;;;;;;;5.63;3.85;;;;;;;;;;5056238;28;20040;-69
2023/01/15 10:00:28;;;;;;;7.25;3.92;;;;;;;;;;5055138;28;20025;-68
2023/01/15 10:03:05;;;;;;;6.22;3.20;;;;;;;;;;5055975;28;20137;-69
2023/01/15 10:05:34;;;;;;;3.95;3.50;;;;;;;;;;5056099;28;20036;-69
2023/01/15 10:08:11;;;;;;;7.72;3.25;;;;;;;;;;5055743;28;20033;-69
2023/01/15 10:10:47;;;;;;;7.90;3.38;;;;;;;;;;5037837;28;20061;-69
2023/01/15 10:13:32;;;;;;;4.75;4.28;;;;;;;;;;5055640;28;20115;-69
2023/01/15 10:15:58;;;;;;;3.92;3.28;;;;;;;;;;5054869;28;20051;-67
2023/01/15 10:18:24;;;;;;;5.80;3.55;;;;;;;;;;5055811;28;20033;-65
2023/01/15 10:21:00;;;;;;;5.25;3.50;;;;;;;;;;5055618;28;20029;-68
2023/01/15 10:23:41;;;;;;;5.05;3.30;;;;;;;;;;5055855;28;20037;-72
2023/01/15 10:26:17;;;;;;;4.05;2.58;;;;;;;;;;5036931;28;20495;-70
2023/01/15 10:28:42;;;;;;;4.75;3.72;;;;;;;;;;5019943;28;20043;-67
2023/01/15 10:31:12;;;;;;;8.38;4.80;;;;;;;;;;5037461;28;20123;-67
2023/01/15 10:34:02;;;;;;;5.50;3.63;;;;;;;;;;5055270;28;20044;-67
2023/01/15 10:36:40;;;;;;;9.70;6.07;;;;;;;;;;5055540;28;20045;-69
2023/01/15 10:39:20;;;;;;;8.27;4.40;;;;;;;;;;5054843;28;20049;-69
2023/01/15 10:42:09;;;;;;;9.88;6.25;;;;;;;;;;5051558;28;20459;-70
2023/01/15 10:44:43;;;;;;;20.45;9.45;;;;;;;;;;5020336;28;20037;-70
2023/01/15 10:47:14;;;;;;;19.50;7.75;;;;;;;;;;5051619;28;20044;-70
2023/01/15 10:49:40;;;;;;;10.43;5.60;;;;;;;;;;5035182;28;20033;-69
2023/01/15 10:52:21;;;;;;;7.63;4.85;;;;;;;;;;5055176;28;20033;-69
2023/01/15 10:54:46;;;;;;;;;;;;;;;;;;5054541;28;20045;-69
2023/01/15 10:57:26;;;;;;;5.87;4.00;;;;;;;;;;5053790;28;19915;-68
2023/01/15 11:00:00;;;;;;;6.47;3.83;;;;;;;;;;5054796;28;20263;-69
2023/01/15 11:02:39;;;;;;;5.25;4.18;;;;;;;;;;5054908;28;20033;-69
2023/01/15 11:05:05;;;;;;;9.55;4.90;;;;;;;;;;5054466;28;20048;-69
2023/01/15 11:07:36;;;;;;;5.65;4.38;;;;;;;;;;5053597;28;20029;-69
2023/01/15 11:10:04;;;;;;;8.15;5.03;;;;;;;;;;5035602;28;20098;-68
2023/01/15 11:20:55;;;;;;;9.70;6.38;;;;;;;;;;5051575;28;20053;-68
2023/01/15 11:23:20;;;;;;;9.18;7.18;;;;;;;;;;5051586;28;20029;-68
2023/01/15 11:25:53;;;;;;;9.43;7.07;;;;;;;;;;5017221;28;20119;-68
2023/01/15 11:28:28;;;;;;;8.13;6.22;;;;;;;;;;5049894;28;20041;-68
2023/01/15 11:30:54;;;;;;;9.77;6.05;;;;;;;;;;5050537;28;20090;-68
2023/01/15 11:33:23;;;;;;;7.65;5.13;;;;;;;;;;5050683;28;20448;-68
2023/01/15 11:35:50;;;;;;;6.28;4.38;;;;;;;;;;5050883;28;20079;-68
2023/01/15 11:38:16;;;;;;;5.57;4.18;;;;;;;;;;5050722;28;20510;-68
2023/01/15 11:40:51;;;;;;;3.90;3.13;;;;;;;;;;5051701;28;20029;-68
2023/01/15 11:51:34;;;;;;;4.90;3.90;;;;;;;;;;5053850;28;20178;-68
2023/01/15 11:54:02;;;;;;;7.30;4.05;;;;;;;;;;5053766;28;20044;-68
2023/01/15 11:56:30;;;;;;;4.82;3.83;;;;;;;;;;5053791;28;20045;-68
2023/01/15 11:58:57;;;;;;;5.53;4.22;;;;;;;;;;5054007;28;20049;-68
2023/01/15 12:01:27;;;;;;;4.95;4.25;;;;;;;;;;5053886;28;20052;-68
2023/01/15 12:03:53;;;;;;;5.93;4.05;;;;;;;;;;5053823;28;20029;-68
2023/01/15 12:06:19;;;;;;;6.72;4.10;;;;;;;;;;5054180;28;20044;-68
2023/01/15 12:08:50;;;;;;;6.25;3.97;;;;;;;;;;5053623;28;20029;-68
2023/01/15 12:11:30;;;;;;;10.00;5.40;;;;;;;;;;5053530;28;20039;-68
2023/01/15 12:14:02;;;;;;;9.05;5.00;;;;;;;;;;5035693;28;20548;-68
2023/01/15 12:16:45;;;;;;;7.90;4.00;;;;;;;;;;5053473;28;20048;-68
2023/01/15 12:19:25;;;;;;;9.93;4.47;;;;;;;;;;5053537;28;20041;-68
2023/01/15 12:21:59;;;;;;;8.10;3.92;;;;;;;;;;5053679;28;20045;-68
2023/01/15 12:24:33;;;;;;;15.85;6.78;;;;;;;;;;5053953;28;20048;-68
2023/01/15 12:27:06;;;;;;;13.82;6.93;;;;;;;;;;5053646;28;20044;-68
2023/01/15 12:29:38;;;;;;;14.43;6.15;;;;;;;;;;5053643;28;20126;-68
2023/01/15 12:32:06;;;;;;;8.05;4.55;;;;;;;;;;5053610;28;20126;-68
2023/01/15 12:34:50;;;;;;;19.05;7.55;;;;;;;;;;5053318;28;20044;-68
2023/01/15 12:37:23;;;;;;;12.48;7.00;;;;;;;;;;5053674;28;20037;-68
2023/01/15 12:39:56;;;;;;;7.80;3.95;;;;;;;;;;5038545;28;20397;-68
2023/01/15 12:45:09;;;;;;;10.35;5.65;;;;;;;;;;5057284;28;20033;-68
2023/01/15 12:47:38;;;;;;;13.77;5.82;;;;;;;;;;5057525;28;20033;-68
2023/01/15 12:50:03;;;;;;;3.58;2.72;;;;;;;;;;5057487;28;20048;-68
2023/01/15 12:52:34;;;;;;;6.30;3.78;;;;;;;;;;5039307;28;20045;-68
2023/01/15 12:55:08;;;;;;;5.38;4.05;;;;;;;;;;5057134;28;20041;-68
2023/01/15 12:57:35;;;;;;;1.80;1.55;;;;;;;;;;5057074;28;20047;-68
2023/01/15 13:00:04;;;;;;;7.63;4.90;;;;;;;;;;5057276;28;20043;-68
2023/01/15 13:02:48;;;;;;;10.50;6.25;;;;;;;;;;5057447;28;20048;-68
2023/01/15 13:05:18;;;;;;;4.50;2.78;;;;;;;;;;5056963;28;20423;-68
2023/01/15 13:08:16;;;;;;;9.27;5.40;;;;;;;;;;5057200;28;20033;-68
2023/01/15 13:10:42;;;;;;;9.68;5.85;;;;;;;;;;5002673;28;20396;-68
2023/01/15 13:13:10;;;;;;;7.53;4.75;;;;;;;;;;5039331;28;20037;-68
2023/01/15 13:15:38;;;;;;;7.45;5.13;;;;;;;;;;5056760;28;20040;-68
2023/01/15 13:18:11;;;;;;;7.68;4.53;;;;;;;;;;5038794;28;20021;-68
2023/01/15 13:20:44;;;;;;;9.70;6.47;;;;;;;;;;5056944;28;20041;-68
2023/01/15 13:23:21;;;;;;;7.10;4.97;;;;;;;;;;5057109;28;20041;-67
2023/01/15 13:25:56;;;;;;;4.97;3.33;;;;;;;;;;5056842;28;20163;-68
2023/01/15 13:28:40;;;;;;;13.57;6.55;;;;;;;;;;5038634;28;20033;-68
2023/01/15 13:31:14;;;;;;;10.45;5.43;;;;;;;;;;5057015;28;20528;-68
2023/01/15 13:33:39;;;;;;;5.28;3.88;;;;;;;;;;5056425;28;20596;-68
2023/01/15 13:36:20;;;;;;;7.03;4.75;;;;;;;;;;5038926;28;20149;-68
2023/01/15 13:38:47;;;;;;;3.13;2.83;;;;;;;;;;5056230;28;20048;-68
2023/01/15 13:42:30;;;;;;;9.38;6.60;;;;;;;;;;5056205;28;20053;-68
2023/01/15 13:44:03;;;;;;;6.82;4.88;;;;;;;;;;5038177;28;20389;-68
2023/01/15 13:46:28;;;;;;;4.90;4.28;;;;;;;;;;5056444;28;20052;-68
2023/01/15 13:48:54;;;;;;;12.25;6.85;;;;;;;;;;5056420;28;20033;-68
2023/01/15 13:51:30;;;;;;;7.07;5.10;;;;;;;;;;5055961;28;20037;-68
2023/01/15 13:53:56;;;;;;;7.10;4.85;;;;;;;;;;5038603;28;20045;-68
2023/01/15 13:56:29;;;;;;;6.43;5.40;;;;;;;;;;5056281;28;20048;-67
2023/01/15 13:58:59;;;;;;;4.97;4.00;;;;;;;;;;5038468;28;20040;-68
2023/01/15 14:01:34;;;;;;;4.20;3.38;;;;;;;;;;5056147;28;20392;-68
2023/01/15 14:04:02;;;;;;;4.57;3.45;;;;;;;;;;5038247;28;20400;-68
2023/01/15 14:06:36;;;;;;;4.68;4.28;;;;;;;;;;5055820;28;20036;-68
2023/01/15 14:09:04;;;;;;;6.60;4.88;;;;;;;;;;5054711;28;20552;-69
2023/01/15 14:11:50;;;;;;;4.68;4.28;;;;;;;;;;5052163;28;20057;-69
2023/01/15 14:14:15;;;;;;;5.43;4.93;;;;;;;;;;5052213;28;20045;-70
2023/01/15 14:17:11;;;;;;;16.05;11.93;;;;;;;;;;5054480;28;20390;-68
2023/01/15 14:19:36;;;;;;;12.90;10.00;;;;;;;;;;4967483;28;20043;-68
2023/01/15 14:22:24;;;;;;;35.95;24.35;;;;;;;;;;5035742;28;20044;-69
2023/01/15 14:24:50;;;;;;;29.55;20.30;;;;;;;;;;5055029;28;20041;-68
2023/01/15 14:27:22;;;;;;;27.45;20.52;;;;;;;;;;5055234;28;20032;-68
2023/01/15 14:30:04;;;;;;;23.38;17.67;;;;;;;;;;5055088;28;20033;-68
2023/01/15 14:32:50;;;;;;;22.77;17.08;;;;;;;;;;5055018;28;20044;-68
2023/01/15 14:35:19;;;;;;;13.45;10.70;;;;;;;;;;5054589;28;20039;-68
2023/01/15 14:37:50;;;;;;;11.30;8.60;;;;;;;;;;5054288;28;20045;-66
2023/01/15 14:40:21;;;;;;;7.25;6.50;;;;;;;;;;5054284;28;20056;-65
2023/01/15 14:43:01;;;;;;;6.13;5.00;;;;;;;;;;5053728;28;20547;-65
2023/01/15 14:45:28;;;;;;;15.27;8.35;;;;;;;;;;5053782;28;20115;-66
2023/01/15 14:48:27;;;;;;;19.45;10.32;;;;;;;;;;5054760;28;20056;-65
2023/01/15 14:50:54;;;;;;;17.73;9.02;;;;;;;;;;4980640;28;20052;-66
2023/01/15 14:53:25;;;;;;;17.25;9.98;;;;;;;;;;5053670;28;20037;-66
2023/01/15 14:56:03;;;;;;;20.08;11.35;;;;;;;;;;5052526;28;20029;-70
2023/01/15 14:58:47;;;;;;;25.17;13.40;;;;;;;;;;5053316;28;20119;-66
2023/01/15 15:01:31;;;;;;;26.75;14.15;;;;;;;;;;5053458;28;20500;-67
2023/01/15 15:04:00;;;;;;;19.67;10.93;;;;;;;;;;5054461;28;20064;-68
2023/01/15 15:06:26;;;;;;;18.83;10.82;;;;;;;;;;5053873;28;20069;-69
2023/01/15 15:08:56;;;;;;;16.98;9.95;;;;;;;;;;5054332;28;20055;-66
2023/01/15 15:14:25;;;;;;;8.02;6.43;;;;;;;;;;5016929;28;20065;-64
2023/01/15 15:16:52;;;;;;;11.30;7.07;;;;;;;;;;5019706;28;20378;-69
2023/01/15 15:19:29;;;;;;;15.95;10.80;;;;;;;;;;5029604;28;20033;-70
2023/01/15 15:21:57;;;;;;;17.90;12.73;;;;;;;;;;5033874;28;20480;-69
2023/01/15 15:24:25;;;;;;;26.23;17.27;;;;;;;;;;5035242;28;20040;-69
2023/01/15 15:26:50;;;;;;;34.22;19.00;;;;;;;;;;5051737;28;20121;-69
2023/01/15 15:29:17;;;;;;;26.42;15.40;;;;;;;;;;5052659;28;20112;-69
2023/01/15 15:31:48;;;;;;;21.98;12.30;;;;;;;;;;5051233;28;20060;-69
2023/01/15 15:34:36;;;;;;;15.82;10.13;;;;;;;;;;5049959;28;20037;-69
2023/01/15 15:37:11;;;;;;;13.18;9.07;;;;;;;;;;5048433;28;20684;-69
2023/01/15 15:39:43;;;;;;;15.15;10.45;;;;;;;;;;5049301;28;20132;-69
2023/01/15 15:50:41;;;;;;;12.80;9.15;;;;;;;;;;5048573;28;20045;-69
2023/01/15 15:53:15;;;;;;;16.33;11.18;;;;;;;;;;5051807;28;20040;-69
2023/01/15 15:55:41;;;;;;;16.05;10.52;;;;;;;;;;5052299;28;20037;-69
2023/01/15 15:58:08;;;;;;;13.07;7.85;;;;;;;;;;5050203;28;20040;-69
2023/01/15 16:00:34;;;;;;;12.18;7.70;;;;;;;;;;5049459;28;20044;-69
2023/01/15 16:03:02;;;;;;;13.60;8.98;;;;;;;;;;5048147;28;20108;-69